| time (UTC) | temp F | wind direction | speed MPH | gust MPH | rain 1hr in | rain 24hr in | rain mn in | humidity % | barometer mb |
| 20260502164011 | 51 | 109 | 0.0 | 2.0 | 0.02 | 0.15 | 0.12 | 94 | 1013.5 |
| 20260502163507 | 51 | 108 | 0.0 | 2.0 | 0.02 | 0.15 | 0.12 | 94 | 1013.7 |
| 20260502163016 | 51 | 91 | 0.0 | 2.0 | 0.02 | 0.15 | 0.12 | 94 | 1014.0 |
| 20260502162008 | 51 | 93 | 0.0 | 2.0 | 0.02 | 0.14 | 0.11 | 94 | 1014.2 |
| 20260502152007 | 52 | 86 | 1.0 | 4.0 | 0.02 | 0.12 | 0.09 | 94 | 1013.7 |
| 20260502151518 | 52 | 98 | 0.0 | 3.0 | 0.02 | 0.12 | 0.09 | 94 | 1013.7 |
| 20260502151008 | 52 | 104 | 0.0 | 3.0 | 0.02 | 0.12 | 0.09 | 94 | 1013.9 |
| 20260502130509 | 52 | 240 | 0.0 | 2.0 | 0.03 | 0.08 | 0.05 | 93 | 1013.1 |
| 20260502123508 | 51 | 297 | 0.0 | 2.0 | 0.02 | 0.06 | 0.03 | 93 | 1012.4 |
| 20260502123030 | 51 | 292 | 0.0 | 2.0 | 0.02 | 0.06 | 0.03 | 93 | 1012.3 |
| 20260502122502 | 51 | 346 | 0.0 | 2.0 | 0.02 | 0.06 | 0.03 | 93 | 1012.2 |
| 20260502122002 | 51 | 346 | 0.0 | 2.0 | 0.02 | 0.06 | 0.03 | 93 | 1012.4 |
| 20260502121503 | 51 | 246 | 0.0 | 2.0 | 0.01 | 0.05 | 0.02 | 92 | 1012.4 |
| 20260502121002 | 51 | 9 | 0.0 | 2.0 | 0.01 | 0.05 | 0.02 | 93 | 1012.4 |
| 20260502120502 | 51 | 324 | 0.0 | 2.0 | 0.01 | 0.05 | 0.02 | 92 | 1012.4 |
| 20260502115502 | 51 | 53 | 0.0 | 2.0 | 0.01 | 0.05 | 0.02 | 92 | 1012.4 |
| 20260502115003 | 51 | 306 | 0.0 | 2.0 | 0.00 | 0.04 | 0.01 | 92 | 1012.4 |
| 20260502114504 | 51 | 52 | 0.0 | 2.0 | 0.01 | 0.04 | 0.01 | 92 | 1012.5 |
| 20260502114003 | 51 | 333 | 0.0 | 2.0 | 0.01 | 0.04 | 0.01 | 92 | 1012.7 |
| 20260502113505 | 51 | 330 | 0.0 | 2.0 | 0.01 | 0.04 | 0.01 | 92 | 1012.6 |
| 20260502112502 | 52 | 57 | 0.0 | 1.0 | 0.01 | 0.04 | 0.01 | 91 | 1012.7 |
| 20260502112002 | 52 | 328 | 0.0 | 2.0 | 0.01 | 0.04 | 0.01 | 91 | 1012.8 |
| 20260502111510 | 52 | 342 | 0.0 | 2.0 | 0.01 | 0.04 | 0.01 | 91 | 1012.9 |
| 20260502111002 | 52 | 329 | 0.0 | 2.0 | 0.01 | 0.04 | 0.01 | 91 | 1012.8 |
| 20260502110502 | 52 | 328 | 0.0 | 0.0 | 0.01 | 0.04 | 0.01 | 91 | 1012.8 |
| 20260502110009 | 52 | 328 | 0.0 | 2.0 | 0.01 | 0.04 | 0.01 | 91 | 1013.0 |
| 20260502105505 | 52 | 328 | 0.0 | 2.0 | 0.01 | 0.04 | 0.01 | 91 | 1012.9 |
| 20260502105003 | 52 | 199 | 0.0 | 1.0 | 0.01 | 0.04 | 0.01 | 91 | 1012.8 |
| 20260502104503 | 52 | 247 | 0.0 | 2.0 | 0.00 | 0.03 | 0.00 | 91 | 1012.8 |
| 20260502104004 | 53 | 9 | 0.0 | 2.0 | 0.00 | 0.03 | 0.00 | 91 | 1012.8 |
| 20260502103503 | 53 | 5 | 0.0 | 2.0 | 0.00 | 0.03 | 0.00 | 90 | 1012.9 |
| 20260502103004 | 53 | 317 | 0.0 | 2.0 | 0.00 | 0.03 | 0.00 | 90 | 1012.9 |
| 20260502102503 | 53 | 294 | 0.0 | 2.0 | 0.00 | 0.03 | 0.00 | 90 | 1012.9 |
| 20260502102002 | 53 | 311 | 0.0 | 2.0 | 0.00 | 0.03 | 0.00 | 90 | 1012.8 |
| 20260502101504 | 53 | 290 | 0.0 | 2.0 | 0.00 | 0.03 | 0.00 | 90 | 1012.7 |
| 20260502101002 | 53 | 350 | 0.0 | 2.0 | 0.00 | 0.03 | 0.00 | 90 | 1012.8 |
| 20260502100505 | 53 | 11 | 0.0 | 2.0 | 0.00 | 0.03 | 0.00 | 91 | 1012.8 |
| 20260502091504 | 53 | 323 | 0.0 | 0.0 | 0.00 | 0.03 | 0.00 | 92 | 1012.9 |
| 20260502091002 | 53 | 323 | 0.0 | 0.0 | 0.00 | 0.03 | 0.00 | 92 | 1012.9 |
| 20260502090502 | 53 | 323 | 0.0 | 1.0 | 0.00 | 0.03 | 0.00 | 92 | 1012.9 |
| 20260502071506 | 52 | 301 | 0.0 | 0.0 | 0.00 | 0.03 | 0.00 | 93 | 1011.8 |
| 20260502071003 | 52 | 301 | 0.0 | 0.0 | 0.00 | 0.03 | 0.00 | 93 | 1011.8 |
| 20260502070503 | 52 | 301 | 0.0 | 0.0 | 0.00 | 0.03 | 0.00 | 93 | 1011.8 |
| 20260502070009 | 52 | 301 | 0.0 | 0.0 | 0.00 | 0.03 | 0.00 | 93 | 1011.8 |
| 20260502065503 | 52 | 301 | 0.0 | 0.0 | 0.00 | 0.03 | 0.00 | 93 | 1012.0 |
| 20260502065003 | 52 | 301 | 0.0 | 0.0 | 0.00 | 0.03 | 0.00 | 93 | 1012.1 |
| 20260502064507 | 52 | 301 | 0.0 | 0.0 | 0.00 | 0.03 | 0.00 | 93 | 1012.1 |
| 20260502064007 | 52 | 250 | 0.0 | 0.0 | 0.00 | 0.03 | 0.00 | 94 | 1012.2 |
| 20260502063504 | 52 | 250 | 0.0 | 0.0 | 0.00 | 0.03 | 0.00 | 94 | 1012.2 |
| 20260502063022 | 52 | 250 | 0.0 | 0.0 | 0.00 | 0.03 | 0.00 | 94 | 1012.0 |
| 20260502062504 | 52 | 250 | 0.0 | 0.0 | 0.00 | 0.03 | 0.00 | 94 | 1012.3 |
| 20260502062005 | 52 | 250 | 0.0 | 0.0 | 0.00 | 0.03 | 0.00 | 94 | 1012.3 |
| 20260502061508 | 52 | 250 | 0.0 | 0.0 | 0.00 | 0.03 | 0.00 | 94 | 1012.4 |
| 20260502061003 | 52 | 250 | 0.0 | 0.0 | 0.00 | 0.03 | 0.00 | 94 | 1012.3 |
| 20260502060503 | 52 | 250 | 0.0 | 0.0 | 0.00 | 0.03 | 0.00 | 94 | 1012.4 |
| 20260502060007 | 52 | 250 | 0.0 | 0.0 | 0.00 | 0.03 | 0.00 | 94 | 1012.6 |
| 20260502055504 | 52 | 250 | 0.0 | 0.0 | 0.00 | 0.03 | 0.00 | 94 | 1012.5 |
| 20260502055004 | 52 | 250 | 0.0 | 0.0 | 0.00 | 0.03 | 0.00 | 94 | 1012.5 |
| 20260502054003 | 52 | 250 | 0.0 | 0.0 | 0.00 | 0.03 | 0.00 | 93 | 1012.6 |
| 20260502053504 | 52 | 250 | 0.0 | 0.0 | 0.00 | 0.03 | 0.00 | 93 | 1012.7 |
| 20260502053008 | 52 | 250 | 0.0 | 0.0 | 0.00 | 0.03 | 0.00 | 93 | 1012.8 |
| 20260502052504 | 52 | 250 | 0.0 | 0.0 | 0.00 | 0.03 | 0.00 | 93 | 1012.9 |
| 20260502052004 | 52 | 250 | 0.0 | 0.0 | 0.00 | 0.03 | 0.00 | 93 | 1012.9 |
| 20260502051510 | 52 | 250 | 0.0 | 0.0 | 0.00 | 0.03 | 0.00 | 93 | 1013.0 |
| 20260502050008 | 52 | 250 | 0.0 | 0.0 | 0.00 | 0.03 | 0.00 | 93 | 1013.1 |
| 20260502045504 | 52 | 250 | 0.0 | 0.0 | 0.00 | 0.03 | 0.00 | 93 | 1013.2 |
| 20260502045004 | 52 | 250 | 0.0 | 0.0 | 0.00 | 0.03 | 0.00 | 93 | 1013.1 |
| 20260502044512 | 52 | 250 | 0.0 | 0.0 | 0.00 | 0.03 | 0.00 | 93 | 1013.2 |
| 20260502044007 | 52 | 250 | 0.0 | 0.0 | 0.00 | 0.03 | 0.00 | 93 | 1013.3 |
| 20260502043504 | 52 | 250 | 0.0 | 0.0 | 0.00 | 0.03 | 0.00 | 93 | 1013.2 |
| 20260502043013 | 52 | 250 | 0.0 | 0.0 | 0.00 | 0.03 | 0.00 | 92 | 1013.2 |
| 20260502042503 | 52 | 250 | 0.0 | 0.0 | 0.00 | 0.03 | 0.00 | 92 | 1013.2 |
| 20260502042005 | 52 | 250 | 0.0 | 0.0 | 0.00 | 0.03 | 0.00 | 92 | 1013.3 |
| 20260502041513 | 52 | 250 | 0.0 | 0.0 | 0.00 | 0.03 | 0.00 | 92 | 1013.3 |
| 20260502041004 | 52 | 250 | 0.0 | 0.0 | 0.00 | 0.03 | 0.00 | 93 | 1013.3 |
| 20260502040504 | 52 | 250 | 0.0 | 0.0 | 0.00 | 0.03 | 0.00 | 92 | 1013.4 |
| 20260502040008 | 52 | 250 | 0.0 | 0.0 | 0.00 | 0.03 | 0.00 | 92 | 1013.2 |
| 20260502034512 | 52 | 234 | 0.0 | 0.0 | 0.00 | 0.03 | 0.03 | 93 | 1013.2 |
| 20260502034004 | 52 | 234 | 0.0 | 0.0 | 0.00 | 0.03 | 0.03 | 92 | 1013.2 |
| 20260502033503 | 52 | 234 | 0.0 | 0.0 | 0.00 | 0.03 | 0.03 | 92 | 1013.3 |
| 20260502033013 | 52 | 234 | 0.0 | 0.0 | 0.00 | 0.03 | 0.03 | 92 | 1013.4 |
| 20260502032506 | 52 | 234 | 0.0 | 0.0 | 0.00 | 0.03 | 0.03 | 92 | 1013.6 |
| 20260502032005 | 52 | 234 | 0.0 | 0.0 | 0.00 | 0.03 | 0.03 | 92 | 1013.6 |
| 20260502031515 | 52 | 234 | 0.0 | 0.0 | 0.00 | 0.03 | 0.03 | 92 | 1013.6 |
| 20260502031005 | 52 | 234 | 0.0 | 0.0 | 0.00 | 0.03 | 0.03 | 92 | 1013.7 |
| 20260502030504 | 52 | 234 | 0.0 | 0.0 | 0.00 | 0.03 | 0.03 | 92 | 1013.7 |
| 20260502030014 | 52 | 234 | 0.0 | 0.0 | 0.00 | 0.03 | 0.03 | 92 | 1013.7 |
| 20260502025506 | 52 | 234 | 0.0 | 0.0 | 0.00 | 0.03 | 0.03 | 92 | 1013.8 |
| 20260502025003 | 52 | 234 | 0.0 | 0.0 | 0.00 | 0.03 | 0.03 | 92 | 1013.8 |
| 20260502024515 | 52 | 234 | 0.0 | 0.0 | 0.00 | 0.03 | 0.03 | 92 | 1013.8 |
| 20260502023018 | 52 | 234 | 0.0 | 0.0 | 0.00 | 0.03 | 0.03 | 91 | 1014.0 |
| 20260502022506 | 52 | 234 | 0.0 | 0.0 | 0.00 | 0.03 | 0.03 | 91 | 1014.0 |
| 20260502022005 | 52 | 235 | 0.0 | 0.0 | 0.00 | 0.03 | 0.03 | 91 | 1013.9 |
| 20260502021518 | 52 | 234 | 0.0 | 0.0 | 0.00 | 0.03 | 0.03 | 91 | 1013.7 |
| 20260502021003 | 52 | 235 | 0.0 | 0.0 | 0.00 | 0.03 | 0.03 | 91 | 1013.7 |
| 20260502020504 | 52 | 234 | 0.0 | 0.0 | 0.00 | 0.03 | 0.03 | 91 | 1014.0 |
| 20260502020020 | 52 | 234 | 0.0 | 0.0 | 0.00 | 0.03 | 0.03 | 91 | 1014.0 |
| 20260502015507 | 52 | 234 | 0.0 | 0.0 | 0.00 | 0.03 | 0.03 | 90 | 1013.9 |
| 20260502015006 | 52 | 234 | 0.0 | 0.0 | 0.00 | 0.03 | 0.03 | 90 | 1013.9 |
| 20260502014525 | 52 | 234 | 0.0 | 0.0 | 0.00 | 0.03 | 0.03 | 90 | 1013.9 |
| 20260502014005 | 52 | 224 | 0.0 | 0.0 | 0.00 | 0.03 | 0.03 | 90 | 1013.7 |
| 20260502013505 | 52 | 224 | 0.0 | 0.0 | 0.00 | 0.03 | 0.03 | 90 | 1013.6 |
| 20260502013013 | 53 | 224 | 0.0 | 0.0 | 0.00 | 0.03 | 0.03 | 89 | 1013.7 |
| 20260502011006 | 53 | 182 | 0.0 | 0.0 | 0.00 | 0.03 | 0.03 | 90 | 1013.5 |
| 20260502010507 | 53 | 182 | 0.0 | 0.0 | 0.00 | 0.03 | 0.03 | 90 | 1013.5 |
| 20260502010023 | 53 | 182 | 0.0 | 0.0 | 0.00 | 0.03 | 0.03 | 90 | 1013.3 |
| 20260502005504 | 53 | 182 | 0.0 | 0.0 | 0.00 | 0.03 | 0.03 | 89 | 1013.4 |
| 20260502005007 | 53 | 182 | 0.0 | 0.0 | 0.00 | 0.03 | 0.03 | 89 | 1013.3 |
| 20260502004520 | 53 | 182 | 0.0 | 0.0 | 0.00 | 0.03 | 0.03 | 89 | 1013.4 |
| 20260502004005 | 53 | 182 | 0.0 | 0.0 | 0.00 | 0.03 | 0.03 | 88 | 1013.4 |
| 20260502003505 | 53 | 182 | 0.0 | 0.0 | 0.00 | 0.03 | 0.03 | 89 | 1013.1 |
| 20260502003017 | 53 | 182 | 0.0 | 0.0 | 0.00 | 0.03 | 0.03 | 89 | 1013.1 |
| 20260502002507 | 53 | 182 | 0.0 | 0.0 | 0.00 | 0.03 | 0.03 | 89 | 1013.0 |
| 20260502002007 | 53 | 182 | 0.0 | 0.0 | 0.00 | 0.03 | 0.03 | 88 | 1013.0 |
| 20260502001515 | 53 | 182 | 0.0 | 0.0 | 0.00 | 0.03 | 0.03 | 88 | 1013.0 |
| 20260502000507 | 53 | 182 | 0.0 | 0.0 | 0.00 | 0.03 | 0.03 | 87 | 1012.9 |
| 20260502000018 | 53 | 182 | 0.0 | 0.0 | 0.00 | 0.03 | 0.03 | 87 | 1012.8 |
| 20260501235508 | 53 | 182 | 0.0 | 0.0 | 0.00 | 0.03 | 0.03 | 86 | 1013.0 |
| 20260501235008 | 53 | 182 | 0.0 | 0.0 | 0.00 | 0.03 | 0.03 | 87 | 1013.0 |
| 20260501234518 | 53 | 182 | 0.0 | 0.0 | 0.00 | 0.03 | 0.03 | 86 | 1013.1 |
| 20260501234006 | 53 | 182 | 0.0 | 0.0 | 0.00 | 0.03 | 0.03 | 86 | 1013.1 |
| 20260501233506 | 53 | 182 | 0.0 | 0.0 | 0.00 | 0.03 | 0.03 | 85 | 1013.2 |
| 20260501233016 | 53 | 182 | 0.0 | 0.0 | 0.00 | 0.03 | 0.03 | 85 | 1013.1 |
| 20260501232506 | 54 | 182 | 0.0 | 0.0 | 0.00 | 0.03 | 0.03 | 85 | 1013.1 |
| 20260501232007 | 54 | 182 | 0.0 | 0.0 | 0.00 | 0.03 | 0.03 | 85 | 1013.1 |
| 20260501231517 | 54 | 182 | 0.0 | 0.0 | 0.00 | 0.03 | 0.03 | 84 | 1013.2 |
| 20260501231006 | 54 | 182 | 0.0 | 0.0 | 0.00 | 0.03 | 0.03 | 84 | 1013.3 |
| 20260501230019 | 54 | 182 | 0.0 | 0.0 | 0.00 | 0.03 | 0.03 | 84 | 1013.2 |
| 20260501224518 | 54 | 182 | 0.0 | 0.0 | 0.00 | 0.03 | 0.03 | 84 | 1013.1 |
| 20260501224006 | 54 | 182 | 0.0 | 0.0 | 0.00 | 0.03 | 0.03 | 84 | 1013.1 |
| 20260501223510 | 54 | 182 | 0.0 | 0.0 | 0.00 | 0.03 | 0.03 | 83 | 1013.4 |
| 20260501223020 | 54 | 182 | 0.0 | 0.0 | 0.00 | 0.03 | 0.03 | 86 | 1013.4 |
| 20260501222507 | 54 | 182 | 0.0 | 0.0 | 0.00 | 0.03 | 0.03 | 85 | 1013.6 |
| 20260501222009 | 54 | 182 | 0.0 | 0.0 | 0.00 | 0.03 | 0.03 | 85 | 1013.4 |
| 20260501221524 | 54 | 182 | 0.0 | 0.0 | 0.00 | 0.03 | 0.03 | 86 | 1013.4 |
| 20260501221002 | 54 | 182 | 0.0 | 0.0 | 0.00 | 0.03 | 0.03 | 86 | 1013.5 |
| 20260501220502 | 53 | 182 | 0.0 | 0.0 | 0.00 | 0.03 | 0.03 | 87 | 1013.7 |
| 20260501220008 | 53 | 182 | 0.0 | 0.0 | 0.00 | 0.03 | 0.03 | 87 | 1013.6 |
| 20260501215505 | 53 | 182 | 0.0 | 0.0 | 0.00 | 0.03 | 0.03 | 87 | 1013.7 |
| 20260501215008 | 53 | 182 | 0.0 | 0.0 | 0.00 | 0.03 | 0.03 | 85 | 1013.8 |
| 20260501214515 | 53 | 182 | 0.0 | 0.0 | 0.00 | 0.03 | 0.03 | 86 | 1013.8 |
| 20260501214003 | 53 | 182 | 0.0 | 0.0 | 0.00 | 0.03 | 0.03 | 87 | 1013.8 |
| 20260501213507 | 53 | 182 | 0.0 | 0.0 | 0.00 | 0.03 | 0.03 | 86 | 1013.8 |
| 20260501213019 | 53 | 182 | 0.0 | 0.0 | 0.00 | 0.03 | 0.03 | 86 | 1013.8 |
| 20260501212507 | 52 | 182 | 0.0 | 0.0 | 0.00 | 0.03 | 0.03 | 88 | 1013.9 |
| 20260501212007 | 52 | 182 | 0.0 | 0.0 | 0.00 | 0.03 | 0.03 | 88 | 1013.9 |
| 20260501211523 | 53 | 182 | 0.0 | 0.0 | 0.00 | 0.03 | 0.03 | 89 | 1013.9 |
| 20260501211013 | 52 | 182 | 0.0 | 0.0 | 0.00 | 0.03 | 0.03 | 89 | 1013.9 |
| 20260501210507 | 52 | 182 | 0.0 | 0.0 | 0.00 | 0.03 | 0.03 | 88 | 1013.9 |
| 20260501210022 | 52 | 182 | 0.0 | 0.0 | 0.00 | 0.03 | 0.03 | 89 | 1014.1 |
| 20260501205504 | 52 | 182 | 0.0 | 0.0 | 0.00 | 0.03 | 0.03 | 87 | 1014.2 |
| 20260501205004 | 52 | 182 | 0.0 | 0.0 | 0.00 | 0.03 | 0.03 | 89 | 1014.1 |
| 20260501204513 | 52 | 182 | 0.0 | 0.0 | 0.00 | 0.03 | 0.03 | 89 | 1014.0 |
| 20260501204004 | 52 | 182 | 0.0 | 0.0 | 0.00 | 0.03 | 0.03 | 89 | 1014.1 |
| 20260501203503 | 52 | 182 | 0.0 | 0.0 | 0.00 | 0.03 | 0.03 | 88 | 1014.1 |
| 20260501203014 | 52 | 182 | 0.0 | 0.0 | 0.00 | 0.03 | 0.03 | 89 | 1014.1 |
| 20260501202505 | 52 | 182 | 0.0 | 0.0 | 0.00 | 0.03 | 0.03 | 89 | 1014.3 |
| 20260501202008 | 52 | 182 | 0.0 | 0.0 | 0.01 | 0.03 | 0.03 | 87 | 1014.4 |
| 20260501201519 | 52 | 182 | 0.0 | 0.0 | 0.01 | 0.03 | 0.03 | 87 | 1014.4 |
| 20260501201010 | 52 | 182 | 0.0 | 0.0 | 0.01 | 0.03 | 0.03 | 88 | 1014.5 |
| 20260501200508 | 52 | 182 | 0.0 | 0.0 | 0.01 | 0.03 | 0.03 | 88 | 1014.7 |
| 20260501200024 | 52 | 182 | 0.0 | 0.0 | 0.01 | 0.03 | 0.03 | 88 | 1014.6 |
| 20260501195509 | 52 | 182 | 0.0 | 0.0 | 0.01 | 0.03 | 0.03 | 87 | 1014.6 |
| 20260501195008 | 53 | 182 | 0.0 | 0.0 | 0.01 | 0.03 | 0.03 | 90 | 1014.8 |
| 20260501194508 | 52 | 182 | 0.0 | 0.0 | 0.01 | 0.03 | 0.03 | 89 | 1014.8 |
| 20260501194003 | 52 | 182 | 0.0 | 2.0 | 0.01 | 0.03 | 0.03 | 91 | 1014.9 |
| 20260501193503 | 51 | 182 | 0.0 | 2.0 | 0.01 | 0.03 | 0.03 | 89 | 1015.0 |
| 20260501193012 | 51 | 182 | 0.0 | 1.0 | 0.01 | 0.03 | 0.03 | 91 | 1015.1 |
| 20260501192503 | 51 | 182 | 0.0 | 1.0 | 0.02 | 0.03 | 0.03 | 90 | 1015.1 |
| 20260501192007 | 51 | 182 | 0.0 | 2.0 | 0.02 | 0.02 | 0.02 | 90 | 1015.1 |
| 20260501191517 | 51 | 182 | 0.0 | 2.0 | 0.02 | 0.02 | 0.02 | 90 | 1014.9 |
| 20260501191007 | 51 | 182 | 0.0 | 2.0 | 0.02 | 0.02 | 0.02 | 90 | 1014.8 |
| 20260501190509 | 51 | 182 | 0.0 | 2.0 | 0.02 | 0.02 | 0.02 | 90 | 1015.0 |
| 20260501190021 | 51 | 193 | 0.0 | 2.0 | 0.02 | 0.02 | 0.02 | 90 | 1015.4 |
| 20260501185507 | 51 | 193 | 0.0 | 2.0 | 0.02 | 0.02 | 0.02 | 90 | 1015.4 |
| 20260501185013 | 51 | 193 | 0.0 | 2.0 | 0.02 | 0.02 | 0.02 | 90 | 1015.4 |
| 20260501184523 | 51 | 192 | 0.0 | 2.0 | 0.02 | 0.02 | 0.02 | 89 | 1015.4 |
| 20260501184008 | 52 | 193 | 0.0 | 2.0 | 0.02 | 0.02 | 0.02 | 90 | 1015.4 |
| 20260501183511 | 52 | 194 | 0.0 | 2.0 | 0.02 | 0.02 | 0.02 | 90 | 1015.5 |
| 20260501183008 | 52 | 209 | 0.0 | 2.0 | 0.02 | 0.02 | 0.02 | 90 | 1015.3 |
| 20260501182503 | 51 | 214 | 0.0 | 2.0 | 0.01 | 0.01 | 0.01 | 88 | 1015.6 |
| 20260501182004 | 51 | 216 | 1.0 | 2.0 | 0.00 | 0.00 | 0.00 | 86 | 1015.7 |
| 20260501181514 | 52 | 194 | 0.0 | 2.0 | 0.00 | 0.00 | 0.00 | 84 | 1015.8 |
| 20260501181007 | 53 | 194 | 1.0 | 4.0 | 0.00 | 0.00 | 0.00 | 81 | 1015.8 |
| 20260501180504 | 55 | 194 | 1.0 | 4.0 | 0.00 | 0.00 | 0.00 | 74 | 1015.8 |
| 20260501180018 | 58 | 200 | 2.0 | 4.0 | 0.00 | 0.00 | 0.00 | 59 | 1016.2 |
| 20260501175508 | 59 | 203 | 0.0 | 3.0 | 0.00 | 0.00 | 0.00 | 57 | 1015.5 |
| 20260501175007 | 60 | 133 | 0.0 | 2.0 | 0.00 | 0.00 | 0.00 | 55 | 1015.3 |
| 20260501174533 | 60 | 183 | 0.0 | 2.0 | 0.00 | 0.00 | 0.00 | 56 | 1015.3 |
| 20260501174008 | 60 | 153 | 0.0 | 3.0 | 0.00 | 0.00 | 0.00 | 56 | 1015.3 |
| 20260501173508 | 59 | 207 | 1.0 | 3.0 | 0.00 | 0.00 | 0.00 | 54 | 1015.5 |
| 20260501173022 | 59 | 180 | 0.0 | 2.0 | 0.00 | 0.00 | 0.00 | 54 | 1015.5 |
| 20260501172509 | 60 | 181 | 0.0 | 2.0 | 0.00 | 0.00 | 0.00 | 56 | 1015.6 |
| 20260501172005 | 60 | 184 | 0.0 | 2.0 | 0.00 | 0.00 | 0.00 | 56 | 1015.6 |